Time;durP1;ratioP1;P1;durP2;ratioP2;P2;SDS_P1;SDS_P2;PMS_P1;PMS_P2;Temp;Humidity;BMP_temperature;BMP_pressure;BME280_temperature;BME280_humidity;BME280_pressure;Samples;Min_cycle;Max_cycle;Signal;HPM_P1;HPM_P2
2023/06/04 00:00:33;;;;;;;25.52;2.47;;;;;;;;;;5012661;28;20679;-58
2023/06/04 00:02:58;;;;;;;4.38;1.45;;;;;;;;;;5013235;28;20565;-58
2023/06/04 00:05:25;;;;;;;4.03;1.50;;;;;;;;;;5012929;28;20267;-58
2023/06/04 00:07:51;;;;;;;3.53;1.50;;;;;;;;;;5012864;28;20283;-59
2023/06/04 00:10:16;;;;;;;6.65;1.60;;;;;;;;;;5012966;28;20260;-58
2023/06/04 00:12:41;;;;;;;3.80;1.40;;;;;;;;;;5012439;28;20255;-58
2023/06/04 00:15:07;;;;;;;4.28;1.50;;;;;;;;;;5012851;28;20244;-57
2023/06/04 00:17:32;;;;;;;4.82;1.63;;;;;;;;;;5013342;28;20613;-58
2023/06/04 00:19:57;;;;;;;3.22;1.40;;;;;;;;;;5012357;28;20217;-58
2023/06/04 00:22:23;;;;;;;3.75;1.50;;;;;;;;;;5012618;28;20565;-58
2023/06/04 00:24:49;;;;;;;5.60;1.70;;;;;;;;;;5013119;28;20204;-58
2023/06/04 00:27:14;;;;;;;2.55;1.10;;;;;;;;;;5011542;28;20228;-59
2023/06/04 00:29:39;;;;;;;2.80;1.50;;;;;;;;;;5012942;28;20224;-58
2023/06/04 00:32:05;;;;;;;4.35;1.50;;;;;;;;;;5012678;28;20231;-57
2023/06/04 00:34:30;;;;;;;4.10;1.50;;;;;;;;;;5012093;28;20247;-58
2023/06/04 00:36:55;;;;;;;5.82;1.40;;;;;;;;;;5012592;28;20216;-58
2023/06/04 00:39:21;;;;;;;4.38;1.50;;;;;;;;;;5012692;28;20212;-58
2023/06/04 00:41:46;;;;;;;3.92;1.50;;;;;;;;;;5012038;28;20216;-58
2023/06/04 00:44:11;;;;;;;4.88;1.48;;;;;;;;;;5012393;28;20217;-58
2023/06/04 00:46:37;;;;;;;2.58;1.50;;;;;;;;;;5012666;28;20262;-58
2023/06/04 00:49:02;;;;;;;3.53;1.35;;;;;;;;;;5011814;28;20216;-57
2023/06/04 00:51:27;;;;;;;2.70;1.45;;;;;;;;;;5011087;28;20235;-58
2023/06/04 00:53:53;;;;;;;3.38;1.50;;;;;;;;;;5011055;28;20216;-58
2023/06/04 00:56:18;;;;;;;4.95;1.60;;;;;;;;;;5009982;28;20271;-58
2023/06/04 00:58:45;;;;;;;3.70;1.40;;;;;;;;;;5008926;28;20243;-58
2023/06/04 01:01:16;;;;;;;2.60;1.60;;;;;;;;;;5005394;28;20232;-58
2023/06/04 01:03:42;;;;;;;4.80;1.60;;;;;;;;;;4997592;28;20212;-58
2023/06/04 01:06:10;;;;;;;4.80;1.70;;;;;;;;;;4993315;28;20677;-58
2023/06/04 01:08:35;;;;;;;4.22;1.60;;;;;;;;;;4987417;28;20217;-58
2023/06/04 01:11:01;;;;;;;5.70;1.67;;;;;;;;;;4993185;28;20814;-57
2023/06/04 01:13:27;;;;;;;3.75;2.10;;;;;;;;;;4975148;28;20236;-59
2023/06/04 01:15:52;;;;;;;5.53;1.63;;;;;;;;;;4978053;28;20216;-58
2023/06/04 01:18:28;;;;;;;4.07;1.73;;;;;;;;;;4993240;28;20244;-58
2023/06/04 01:21:00;;;;;;;4.72;1.38;;;;;;;;;;5015906;28;20702;-59
2023/06/04 01:23:33;;;;;;;4.03;1.80;;;;;;;;;;4987824;28;20753;-59
2023/06/04 01:25:59;;;;;;;4.20;1.67;;;;;;;;;;5016276;28;20525;-58
2023/06/04 01:28:24;;;;;;;4.63;1.88;;;;;;;;;;5016958;28;20259;-58
2023/06/04 01:30:50;;;;;;;3.83;1.60;;;;;;;;;;5001390;28;20251;-58
2023/06/04 01:33:16;;;;;;;2.67;1.60;;;;;;;;;;5008924;28;20224;-58
2023/06/04 01:35:42;;;;;;;5.50;1.92;;;;;;;;;;4978808;28;20698;-58
2023/06/04 01:38:07;;;;;;;2.50;1.60;;;;;;;;;;4992804;28;20918;-58
2023/06/04 01:40:32;;;;;;;3.65;1.73;;;;;;;;;;4982205;28;20244;-58
2023/06/04 01:42:58;;;;;;;3.30;1.70;;;;;;;;;;4982567;28;20244;-58
2023/06/04 01:45:23;;;;;;;3.67;1.80;;;;;;;;;;4982014;28;20228;-58
2023/06/04 01:47:49;;;;;;;6.15;1.77;;;;;;;;;;4982854;28;20248;-58
2023/06/04 01:50:14;;;;;;;4.63;1.70;;;;;;;;;;4995249;28;20232;-58
2023/06/04 01:52:40;;;;;;;5.72;1.90;;;;;;;;;;4992488;28;20221;-58
2023/06/04 01:55:07;;;;;;;5.10;1.83;;;;;;;;;;4982283;28;20327;-56
2023/06/04 01:57:32;;;;;;;3.55;1.60;;;;;;;;;;4993697;28;20778;-57
2023/06/04 01:59:57;;;;;;;3.97;1.85;;;;;;;;;;4984427;28;20209;-58
2023/06/04 02:02:23;;;;;;;5.55;2.03;;;;;;;;;;4975472;28;20244;-58
2023/06/04 02:04:51;;;;;;;3.75;1.80;;;;;;;;;;4982225;28;20209;-58
2023/06/04 02:07:20;;;;;;;5.05;1.98;;;;;;;;;;4996512;28;20679;-58
2023/06/04 02:09:45;;;;;;;5.00;1.88;;;;;;;;;;4996442;28;20224;-58
2023/06/04 02:12:11;;;;;;;4.45;1.83;;;;;;;;;;5008425;28;20262;-58
2023/06/04 02:14:37;;;;;;;3.47;1.85;;;;;;;;;;5010703;28;20212;-58
2023/06/04 02:17:04;;;;;;;4.80;1.65;;;;;;;;;;5011518;28;20236;-57
2023/06/04 02:19:29;;;;;;;4.45;1.98;;;;;;;;;;5010791;28;20295;-58
2023/06/04 02:21:55;;;;;;;6.28;1.80;;;;;;;;;;5011570;28;20303;-58
2023/06/04 02:24:20;;;;;;;3.58;2.00;;;;;;;;;;5010966;28;20209;-58
2023/06/04 02:26:46;;;;;;;3.47;1.73;;;;;;;;;;5014066;28;20212;-58
2023/06/04 02:29:11;;;;;;;4.20;2.03;;;;;;;;;;5014099;28;20243;-58
2023/06/04 02:31:37;;;;;;;5.85;1.98;;;;;;;;;;5013663;28;20224;-58
2023/06/04 02:34:02;;;;;;;5.00;1.77;;;;;;;;;;5013816;28;20254;-57
2023/06/04 02:36:28;;;;;;;3.63;2.00;;;;;;;;;;5015122;28;20218;-58
2023/06/04 02:38:53;;;;;;;6.60;1.90;;;;;;;;;;5014962;28;20243;-58
2023/06/04 02:41:19;;;;;;;5.03;2.10;;;;;;;;;;5013821;28;20299;-58
2023/06/04 02:43:44;;;;;;;4.35;2.08;;;;;;;;;;5015098;28;20560;-58
2023/06/04 02:46:10;;;;;;;4.10;2.10;;;;;;;;;;5014791;28;20282;-58
2023/06/04 02:48:35;;;;;;;4.50;1.90;;;;;;;;;;5014014;28;20642;-58
2023/06/04 02:51:00;;;;;;;4.22;2.08;;;;;;;;;;5014490;28;20216;-56
2023/06/04 02:53:26;;;;;;;5.38;2.00;;;;;;;;;;5014548;28;20212;-58
2023/06/04 02:55:52;;;;;;;5.47;2.13;;;;;;;;;;5013874;28;20751;-58
2023/06/04 02:58:18;;;;;;;3.88;2.20;;;;;;;;;;5014229;28;20228;-58
2023/06/04 03:00:44;;;;;;;3.97;2.22;;;;;;;;;;5009350;28;20529;-58
2023/06/04 03:03:09;;;;;;;5.25;2.25;;;;;;;;;;4993902;28;20698;-58
2023/06/04 03:05:36;;;;;;;3.95;2.22;;;;;;;;;;4995090;28;20221;-58
2023/06/04 03:08:03;;;;;;;6.28;2.00;;;;;;;;;;4995169;28;20259;-57
2023/06/04 03:10:28;;;;;;;3.88;2.20;;;;;;;;;;5007270;28;20224;-58
2023/06/04 03:12:54;;;;;;;5.80;2.28;;;;;;;;;;5011048;28;20209;-58
2023/06/04 03:15:20;;;;;;;10.13;2.30;;;;;;;;;;4985772;28;20256;-58
2023/06/04 03:17:45;;;;;;;5.55;2.22;;;;;;;;;;4985362;28;20221;-58
2023/06/04 03:20:10;;;;;;;6.57;2.78;;;;;;;;;;4984574;28;20221;-58
2023/06/04 03:22:36;;;;;;;5.28;2.30;;;;;;;;;;4999484;28;20217;-58
2023/06/04 03:25:01;;;;;;;5.95;1.90;;;;;;;;;;4993588;28;20275;-57
2023/06/04 03:27:27;;;;;;;4.22;2.20;;;;;;;;;;4995299;28;20306;-58
2023/06/04 03:29:52;;;;;;;6.55;2.55;;;;;;;;;;4994146;28;20217;-58
2023/06/04 03:32:17;;;;;;;4.32;2.50;;;;;;;;;;4982209;28;20617;-58
2023/06/04 03:34:43;;;;;;;6.22;2.60;;;;;;;;;;4999648;28;20220;-58
2023/06/04 03:37:08;;;;;;;7.63;2.70;;;;;;;;;;4983000;28;20689;-58
2023/06/04 03:39:33;;;;;;;5.53;2.47;;;;;;;;;;4984799;28;20217;-58
2023/06/04 03:41:59;;;;;;;7.70;2.80;;;;;;;;;;4984711;28;20209;-58
2023/06/04 03:44:24;;;;;;;7.68;2.53;;;;;;;;;;5002107;28;20212;-58
2023/06/04 03:46:49;;;;;;;4.38;2.38;;;;;;;;;;5000776;28;20216;-58
2023/06/04 03:49:17;;;;;;;4.75;2.60;;;;;;;;;;4979659;28;20615;-58
2023/06/04 03:51:42;;;;;;;5.45;2.70;;;;;;;;;;4976422;28;20217;-58
2023/06/04 03:54:07;;;;;;;5.10;2.15;;;;;;;;;;4979256;28;20659;-58
2023/06/04 03:56:33;;;;;;;7.70;3.03;;;;;;;;;;4984625;28;20237;-58
2023/06/04 03:58:58;;;;;;;6.28;2.70;;;;;;;;;;4992523;28;20311;-58
2023/06/04 04:01:23;;;;;;;5.28;2.65;;;;;;;;;;5003513;28;20583;-58
2023/06/04 04:03:49;;;;;;;6.40;2.25;;;;;;;;;;5003157;28;20217;-58
2023/06/04 04:06:15;;;;;;;11.65;3.28;;;;;;;;;;5002215;28;20213;-58
2023/06/04 04:08:42;;;;;;;8.18;3.33;;;;;;;;;;5002896;28;20208;-58
2023/06/04 04:11:10;;;;;;;5.93;2.40;;;;;;;;;;4980074;28;20307;-58
2023/06/04 04:13:36;;;;;;;6.18;2.90;;;;;;;;;;4980480;28;20240;-58
2023/06/04 04:16:01;;;;;;;7.28;2.60;;;;;;;;;;4976700;28;20342;-57
2023/06/04 04:18:26;;;;;;;6.68;2.83;;;;;;;;;;4984018;28;20217;-58
2023/06/04 04:20:51;;;;;;;6.25;3.00;;;;;;;;;;4983155;28;20213;-58
2023/06/04 04:23:17;;;;;;;7.75;3.20;;;;;;;;;;4983799;28;20705;-58
2023/06/04 04:25:44;;;;;;;5.55;2.80;;;;;;;;;;4982999;28;20295;-58
2023/06/04 04:28:09;;;;;;;6.28;3.17;;;;;;;;;;5000813;28;20614;-58
2023/06/04 04:30:35;;;;;;;7.88;2.97;;;;;;;;;;4989562;28;20348;-58
2023/06/04 04:33:05;;;;;;;8.30;2.80;;;;;;;;;;4977342;28;20677;-58
2023/06/04 04:35:32;;;;;;;5.65;3.00;;;;;;;;;;4994486;28;20664;-58
2023/06/04 04:37:58;;;;;;;7.22;2.78;;;;;;;;;;4994949;28;20296;-58
2023/06/04 04:40:23;;;;;;;7.68;2.95;;;;;;;;;;5000243;28;20717;-57
2023/06/04 04:42:48;;;;;;;6.43;3.10;;;;;;;;;;5002542;28;20220;-58
2023/06/04 04:45:14;;;;;;;9.10;2.97;;;;;;;;;;5002170;28;20220;-58
2023/06/04 04:47:39;;;;;;;5.30;2.97;;;;;;;;;;5002127;28;20645;-58
2023/06/04 04:50:05;;;;;;;7.97;3.20;;;;;;;;;;5002080;28;20232;-58
2023/06/04 04:52:30;;;;;;;6.35;3.20;;;;;;;;;;4995736;28;21055;-58
2023/06/04 04:54:57;;;;;;;6.28;2.67;;;;;;;;;;4978758;28;20220;-58
2023/06/04 04:57:23;;;;;;;7.22;2.78;;;;;;;;;;4975224;28;20225;-58
2023/06/04 04:59:48;;;;;;;5.55;2.67;;;;;;;;;;4994233;28;20271;-58
2023/06/04 05:02:14;;;;;;;8.60;2.92;;;;;;;;;;4997375;28;20674;-58
2023/06/04 05:04:39;;;;;;;7.72;3.10;;;;;;;;;;5002390;28;20215;-58
2023/06/04 05:07:05;;;;;;;6.55;2.92;;;;;;;;;;5002067;28;20244;-58
2023/06/04 05:09:30;;;;;;;7.15;2.88;;;;;;;;;;4999686;28;20216;-59
2023/06/04 05:11:55;;;;;;;6.72;2.83;;;;;;;;;;4983188;28;20209;-59
2023/06/04 05:14:21;;;;;;;7.10;3.17;;;;;;;;;;4982493;28;20431;-59
2023/06/04 05:16:48;;;;;;;7.03;3.00;;;;;;;;;;4980698;28;20292;-59
2023/06/04 05:19:13;;;;;;;6.40;2.83;;;;;;;;;;4994169;28;20224;-59
2023/06/04 05:21:39;;;;;;;8.45;3.00;;;;;;;;;;4991903;28;20216;-58
2023/06/04 05:24:05;;;;;;;5.72;2.90;;;;;;;;;;4974231;28;21008;-59
2023/06/04 05:26:32;;;;;;;6.15;2.50;;;;;;;;;;4981772;28;20217;-59
2023/06/04 05:29:01;;;;;;;5.53;2.83;;;;;;;;;;5001048;28;20564;-59
2023/06/04 05:31:26;;;;;;;4.85;2.72;;;;;;;;;;5001262;28;20311;-59
2023/06/04 05:33:52;;;;;;;7.18;2.70;;;;;;;;;;5002325;28;20299;-59
2023/06/04 05:36:19;;;;;;;9.10;3.00;;;;;;;;;;5001052;28;20362;-58
2023/06/04 05:38:44;;;;;;;7.95;2.83;;;;;;;;;;5001976;28;20708;-59
2023/06/04 05:41:11;;;;;;;5.88;2.67;;;;;;;;;;4994585;28;20220;-59
2023/06/04 05:43:37;;;;;;;8.80;2.90;;;;;;;;;;4993531;28;20259;-59
2023/06/04 05:46:02;;;;;;;6.45;3.20;;;;;;;;;;4993818;28;20661;-59
2023/06/04 05:48:27;;;;;;;6.47;3.00;;;;;;;;;;5001420;28;20247;-59
2023/06/04 05:50:53;;;;;;;8.45;3.08;;;;;;;;;;5001509;28;20674;-59
2023/06/04 05:53:18;;;;;;;6.63;3.00;;;;;;;;;;4987981;28;20520;-58
2023/06/04 05:55:43;;;;;;;5.45;2.88;;;;;;;;;;4982622;28;20213;-59
2023/06/04 05:58:09;;;;;;;7.65;2.88;;;;;;;;;;4981393;28;20304;-59
2023/06/04 06:00:34;;;;;;;6.53;2.83;;;;;;;;;;4982995;28;20428;-60
2023/06/04 06:03:00;;;;;;;6.73;3.00;;;;;;;;;;4980819;28;20796;-59
2023/06/04 06:05:25;;;;;;;8.27;3.30;;;;;;;;;;4977171;28;20209;-59
2023/06/04 06:07:51;;;;;;;8.48;2.85;;;;;;;;;;4992524;28;20224;-59
2023/06/04 06:10:16;;;;;;;7.07;2.70;;;;;;;;;;5011414;28;20221;-58
2023/06/04 06:12:41;;;;;;;6.47;2.80;;;;;;;;;;5012155;28;20204;-59
2023/06/04 06:15:07;;;;;;;11.82;3.00;;;;;;;;;;5013241;28;20220;-58
2023/06/04 06:17:32;;;;;;;6.85;2.90;;;;;;;;;;5015001;28;20795;-59
2023/06/04 06:19:59;;;;;;;7.00;3.10;;;;;;;;;;5014179;28;20205;-59
2023/06/04 06:22:25;;;;;;;7.43;2.53;;;;;;;;;;5014377;28;20236;-59
2023/06/04 06:24:50;;;;;;;10.52;3.45;;;;;;;;;;5014816;28;20243;-59
2023/06/04 06:27:16;;;;;;;6.70;3.20;;;;;;;;;;5013163;28;20601;-59
2023/06/04 06:29:41;;;;;;;6.85;2.80;;;;;;;;;;5014865;28;20205;-58
2023/06/04 06:32:07;;;;;;;9.00;3.00;;;;;;;;;;5014117;28;20212;-57
2023/06/04 06:34:32;;;;;;;9.10;3.25;;;;;;;;;;5014012;28;20569;-59
2023/06/04 06:36:57;;;;;;;7.80;2.90;;;;;;;;;;5014962;28;20221;-58
2023/06/04 06:39:23;;;;;;;4.80;2.72;;;;;;;;;;5013829;28;20216;-58
2023/06/04 06:41:48;;;;;;;5.88;2.67;;;;;;;;;;5014966;28;20562;-58
2023/06/04 06:44:13;;;;;;;6.32;2.63;;;;;;;;;;5014317;28;20216;-58
2023/06/04 06:46:38;;;;;;;6.55;3.00;;;;;;;;;;5013996;28;20208;-59
2023/06/04 06:49:04;;;;;;;4.93;3.03;;;;;;;;;;5014778;28;20223;-58
2023/06/04 06:51:29;;;;;;;9.57;3.42;;;;;;;;;;5014667;28;20311;-59
2023/06/04 06:53:55;;;;;;;6.65;2.90;;;;;;;;;;5014060;28;20208;-59
2023/06/04 06:56:20;;;;;;;6.72;2.90;;;;;;;;;;5014322;28;20232;-58
2023/06/04 06:58:45;;;;;;;6.32;2.78;;;;;;;;;;5014954;28;20223;-58
2023/06/04 07:01:11;;;;;;;6.40;3.00;;;;;;;;;;5013615;28;20208;-58
2023/06/04 07:03:38;;;;;;;5.50;2.88;;;;;;;;;;5015191;28;20212;-58
2023/06/04 07:06:03;;;;;;;6.72;2.97;;;;;;;;;;5014439;28;20303;-58
2023/06/04 07:08:28;;;;;;;7.68;2.80;;;;;;;;;;5013986;28;20304;-59
2023/06/04 07:10:54;;;;;;;7.18;3.17;;;;;;;;;;5012824;28;20244;-59
2023/06/04 07:13:19;;;;;;;6.40;2.83;;;;;;;;;;5004504;28;20212;-58
2023/06/04 07:15:45;;;;;;;6.47;2.80;;;;;;;;;;5009455;28;20671;-58
2023/06/04 07:18:10;;;;;;;6.28;2.85;;;;;;;;;;5013785;28;20236;-58
2023/06/04 07:20:35;;;;;;;5.68;2.85;;;;;;;;;;5014866;28;20573;-58
2023/06/04 07:23:01;;;;;;;6.05;2.65;;;;;;;;;;5013496;28;20208;-57
2023/06/04 07:25:26;;;;;;;7.85;2.63;;;;;;;;;;5014722;28;20563;-59
2023/06/04 07:27:51;;;;;;;6.20;2.40;;;;;;;;;;5012930;28;20791;-58
2023/06/04 07:30:16;;;;;;;6.20;2.53;;;;;;;;;;5013000;28;20725;-58
2023/06/04 07:32:45;;;;;;;8.52;2.83;;;;;;;;;;5014416;28;20247;-58
2023/06/04 07:35:11;;;;;;;5.90;2.33;;;;;;;;;;5013961;28;20267;-58
2023/06/04 07:37:36;;;;;;;5.43;2.40;;;;;;;;;;5013729;28;20216;-59
2023/06/04 07:40:02;;;;;;;10.05;3.08;;;;;;;;;;5014061;28;20589;-58
2023/06/04 07:42:27;;;;;;;5.00;2.40;;;;;;;;;;5013921;28;20216;-59
2023/06/04 07:44:52;;;;;;;4.20;2.28;;;;;;;;;;5013511;28;20205;-59
2023/06/04 07:47:18;;;;;;;6.30;2.50;;;;;;;;;;5013778;28;20244;-58
2023/06/04 07:49:43;;;;;;;6.90;2.40;;;;;;;;;;5013377;28;20236;-59
2023/06/04 07:52:08;;;;;;;3.80;2.13;;;;;;;;;;5013714;28;20217;-58
2023/06/04 07:54:34;;;;;;;7.00;2.50;;;;;;;;;;5014091;28;20213;-59
2023/06/04 07:57:00;;;;;;;5.43;2.30;;;;;;;;;;5012802;28;20215;-60
2023/06/04 07:59:25;;;;;;;6.88;2.45;;;;;;;;;;5013754;28;20569;-59
2023/06/04 08:01:51;;;;;;;5.95;2.10;;;;;;;;;;5013752;28;20220;-60
2023/06/04 08:04:16;;;;;;;4.55;2.10;;;;;;;;;;5012673;28;20244;-59
2023/06/04 08:06:43;;;;;;;6.60;2.20;;;;;;;;;;5013918;28;20235;-60
2023/06/04 08:09:09;;;;;;;5.88;2.22;;;;;;;;;;5013494;28;20223;-59
2023/06/04 08:11:35;;;;;;;5.75;2.60;;;;;;;;;;5012884;28;20251;-59
2023/06/04 08:14:00;;;;;;;5.53;2.40;;;;;;;;;;5013381;28;20244;-60
2023/06/04 08:16:26;;;;;;;6.35;2.10;;;;;;;;;;5011357;28;20570;-59
2023/06/04 08:18:51;;;;;;;5.70;2.30;;;;;;;;;;5012809;28;20233;-59
2023/06/04 08:21:21;;;;;;;5.47;2.00;;;;;;;;;;5013133;28;20223;-60
2023/06/04 08:23:47;;;;;;;5.90;2.03;;;;;;;;;;5011931;28;20628;-60
2023/06/04 08:26:12;;;;;;;4.07;2.15;;;;;;;;;;5012202;28;20307;-59
2023/06/04 08:28:38;;;;;;;4.35;2.10;;;;;;;;;;5013166;28;20251;-59
2023/06/04 08:31:04;;;;;;;6.45;2.50;;;;;;;;;;5012864;28;20302;-59
2023/06/04 08:33:29;;;;;;;4.43;1.98;;;;;;;;;;5012590;28;20666;-59
2023/06/04 08:35:55;;;;;;;5.38;2.17;;;;;;;;;;5013464;28;20250;-60
2023/06/04 08:38:20;;;;;;;5.47;1.90;;;;;;;;;;5013064;28;20251;-59
2023/06/04 08:40:46;;;;;;;4.95;2.03;;;;;;;;;;5012488;28;20230;-59
2023/06/04 08:43:11;;;;;;;8.05;1.95;;;;;;;;;;5011450;28;20579;-58
2023/06/04 08:45:40;;;;;;;3.15;1.75;;;;;;;;;;5012835;28;20216;-59
2023/06/04 08:48:07;;;;;;;3.42;1.75;;;;;;;;;;5011561;28;20669;-58
2023/06/04 08:50:33;;;;;;;4.40;1.83;;;;;;;;;;5012973;28;20220;-58
2023/06/04 08:52:58;;;;;;;5.43;1.95;;;;;;;;;;5012190;28;20219;-58
2023/06/04 08:55:23;;;;;;;4.72;2.03;;;;;;;;;;5011374;28;20647;-58
2023/06/04 08:57:50;;;;;;;6.25;1.95;;;;;;;;;;5012852;28;20220;-58
2023/06/04 09:00:16;;;;;;;4.65;1.55;;;;;;;;;;5009908;28;20641;-59
2023/06/04 09:02:42;;;;;;;5.60;1.83;;;;;;;;;;5012719;28;20208;-58
2023/06/04 09:05:10;;;;;;;5.47;1.70;;;;;;;;;;5012471;28;20235;-58
2023/06/04 09:07:39;;;;;;;4.60;1.73;;;;;;;;;;5012083;28;20286;-58
2023/06/04 09:10:04;;;;;;;5.07;1.90;;;;;;;;;;5012384;28;20217;-58
2023/06/04 09:12:30;;;;;;;3.10;1.50;;;;;;;;;;5012556;28;20220;-59
2023/06/04 09:14:55;;;;;;;3.88;1.63;;;;;;;;;;5010726;28;20204;-59
2023/06/04 09:17:23;;;;;;;4.97;1.60;;;;;;;;;;5011974;28;20706;-58
2023/06/04 09:19:50;;;;;;;5.03;1.60;;;;;;;;;;5012543;28;20216;-59
2023/06/04 09:22:15;;;;;;;3.63;1.50;;;;;;;;;;5011536;28;20748;-58
2023/06/04 09:24:41;;;;;;;3.33;1.30;;;;;;;;;;5012568;28;20220;-58
2023/06/04 09:27:10;;;;;;;7.50;1.90;;;;;;;;;;5012147;28;20655;-57
2023/06/04 09:29:36;;;;;;;3.90;1.40;;;;;;;;;;5011820;28;20220;-58
2023/06/04 09:32:01;;;;;;;3.47;1.13;;;;;;;;;;5012135;28;20212;-58
2023/06/04 09:34:27;;;;;;;3.88;1.10;;;;;;;;;;5011998;28;20722;-58
2023/06/04 09:36:53;;;;;;;2.78;1.00;;;;;;;;;;5011383;28;20208;-59
2023/06/04 09:39:18;;;;;;;4.45;1.30;;;;;;;;;;5011949;28;20216;-58
2023/06/04 09:41:43;;;;;;;3.17;1.20;;;;;;;;;;5012634;28;20219;-59
2023/06/04 09:44:10;;;;;;;2.90;1.20;;;;;;;;;;5011110;28;20671;-58
2023/06/04 09:46:35;;;;;;;9.35;4.82;;;;;;;;;;5012242;28;20212;-59
2023/06/04 09:49:02;;;;;;;4.53;1.70;;;;;;;;;;5010533;28;20208;-58
2023/06/04 09:51:27;;;;;;;5.05;1.98;;;;;;;;;;5011495;28;20235;-58
2023/06/04 09:53:53;;;;;;;3.08;1.10;;;;;;;;;;5012123;28;20212;-58
2023/06/04 09:56:18;;;;;;;2.90;1.00;;;;;;;;;;5011004;28;20300;-59
2023/06/04 09:58:44;;;;;;;5.35;1.30;;;;;;;;;;5012281;28;20709;-58
2023/06/04 10:01:11;;;;;;;4.55;1.27;;;;;;;;;;5010652;28;20220;-58
2023/06/04 10:03:36;;;;;;;3.08;1.30;;;;;;;;;;5010081;28;20259;-59
2023/06/04 10:06:03;;;;;;;2.47;1.00;;;;;;;;;;5011714;28;20216;-58
2023/06/04 10:08:29;;;;;;;5.00;1.48;;;;;;;;;;5012145;28;20216;-58
2023/06/04 10:11:01;;;;;;;3.97;1.40;;;;;;;;;;5011401;28;20224;-59
2023/06/04 10:13:28;;;;;;;3.22;1.00;;;;;;;;;;5011973;28;20208;-58
2023/06/04 10:15:53;;;;;;;1.98;1.00;;;;;;;;;;5011972;28;20217;-59
2023/06/04 10:18:18;;;;;;;3.08;1.00;;;;;;;;;;5009455;28;20216;-59
2023/06/04 10:20:44;;;;;;;3.72;1.20;;;;;;;;;;5011861;28;20235;-59
2023/06/04 10:23:09;;;;;;;2.72;1.20;;;;;;;;;;5011481;28;20209;-58
2023/06/04 10:25:35;;;;;;;5.85;1.27;;;;;;;;;;5010592;28;20255;-58
2023/06/04 10:28:01;;;;;;;3.83;1.42;;;;;;;;;;5011972;28;20312;-58
2023/06/04 10:30:26;;;;;;;3.78;1.45;;;;;;;;;;5011686;28;20663;-58
2023/06/04 10:32:51;;;;;;;4.32;1.40;;;;;;;;;;5011202;28;20212;-59
2023/06/04 10:35:17;;;;;;;3.35;1.30;;;;;;;;;;5009976;28;20212;-58
2023/06/04 10:37:42;;;;;;;3.83;1.33;;;;;;;;;;5011998;28;20655;-59
2023/06/04 10:40:08;;;;;;;3.05;1.20;;;;;;;;;;5010477;28;20220;-58
2023/06/04 10:42:37;;;;;;;5.63;1.58;;;;;;;;;;5012090;28;20201;-59
2023/06/04 10:45:03;;;;;;;5.25;1.42;;;;;;;;;;5011420;28;20208;-58
2023/06/04 10:47:31;;;;;;;5.88;1.48;;;;;;;;;;5013818;28;20221;-58
2023/06/04 10:50:06;;;;;;;2.08;1.20;;;;;;;;;;5014878;28;20650;-58
2023/06/04 10:52:31;;;;;;;5.50;1.40;;;;;;;;;;5014461;28;20204;-58
2023/06/04 10:55:02;;;;;;;3.83;1.23;;;;;;;;;;5014870;28;20216;-59
2023/06/04 10:57:27;;;;;;;5.10;1.30;;;;;;;;;;5005793;28;20622;-59
2023/06/04 10:59:56;;;;;;;5.28;1.30;;;;;;;;;;5014079;28;20228;-58
2023/06/04 11:02:22;;;;;;;6.05;1.65;;;;;;;;;;5014731;28;20216;-58
2023/06/04 11:04:47;;;;;;;3.17;1.10;;;;;;;;;;5013522;28;20215;-59
2023/06/04 11:07:12;;;;;;;2.55;1.30;;;;;;;;;;5013733;28;20263;-58
2023/06/04 11:09:38;;;;;;;1.70;1.00;;;;;;;;;;5014419;28;20229;-58
2023/06/04 11:12:06;;;;;;;3.33;1.40;;;;;;;;;;5012275;28;20232;-58
2023/06/04 11:14:32;;;;;;;2.35;1.00;;;;;;;;;;5012823;28;20232;-58
2023/06/04 11:16:57;;;;;;;2.30;1.00;;;;;;;;;;5014301;28;20248;-58
2023/06/04 11:19:22;;;;;;;4.68;1.92;;;;;;;;;;5013645;28;20515;-59
2023/06/04 11:21:48;;;;;;;4.85;1.40;;;;;;;;;;5013298;28;20691;-59
2023/06/04 11:24:13;;;;;;;2.97;1.20;;;;;;;;;;5013747;28;20212;-58
2023/06/04 11:26:38;;;;;;;3.20;1.10;;;;;;;;;;5014684;28;20315;-58
2023/06/04 11:29:08;;;;;;;2.72;1.02;;;;;;;;;;5013342;28;20223;-58
2023/06/04 11:31:42;;;;;;;3.70;1.20;;;;;;;;;;5014654;28;20235;-58
2023/06/04 11:34:08;;;;;;;4.75;1.10;;;;;;;;;;5013930;28;20208;-58
2023/06/04 11:36:33;;;;;;;3.15;1.25;;;;;;;;;;5013666;28;20290;-58
2023/06/04 11:38:59;;;;;;;2.67;1.10;;;;;;;;;;5014525;28;20571;-58
2023/06/04 11:41:27;;;;;;;2.53;1.00;;;;;;;;;;5014003;28;20212;-58
2023/06/04 11:43:52;;;;;;;2.17;1.10;;;;;;;;;;5013564;28;20205;-58
2023/06/04 11:46:17;;;;;;;5.22;1.15;;;;;;;;;;5013609;28;20212;-58
2023/06/04 11:48:42;;;;;;;3.30;1.20;;;;;;;;;;5014386;28;20239;-59
2023/06/04 11:51:11;;;;;;;2.85;1.27;;;;;;;;;;5012695;28;20224;-58
2023/06/04 11:53:36;;;;;;;4.53;1.25;;;;;;;;;;5014035;28;20216;-58
2023/06/04 11:56:01;;;;;;;2.60;1.40;;;;;;;;;;5012510;28;20298;-57
2023/06/04 11:58:27;;;;;;;4.25;2.45;;;;;;;;;;5013515;28;20291;-58
2023/06/04 12:00:52;;;;;;;4.60;1.60;;;;;;;;;;5013995;28;20227;-58
2023/06/04 12:03:17;;;;;;;3.10;1.13;;;;;;;;;;5012923;28;20204;-59
2023/06/04 12:05:42;;;;;;;5.68;1.27;;;;;;;;;;5013632;28;20212;-58
2023/06/04 12:08:09;;;;;;;2.30;1.30;;;;;;;;;;5013330;28;20220;-58
2023/06/04 12:10:38;;;;;;;1.92;1.00;;;;;;;;;;5013062;28;20220;-59
2023/06/04 12:13:05;;;;;;;6.05;1.10;;;;;;;;;;5013316;28;20318;-58
2023/06/04 12:15:30;;;;;;;6.07;1.20;;;;;;;;;;5013408;28;20295;-58
2023/06/04 12:17:55;;;;;;;3.00;1.63;;;;;;;;;;5013023;28;20247;-58
2023/06/04 12:20:52;;;;;;;1.98;1.30;;;;;;;;;;5012767;28;20299;-58
2023/06/04 12:23:21;;;;;;;2.88;1.10;;;;;;;;;;5004789;28;20213;-58
2023/06/04 12:25:50;;;;;;;4.40;1.30;;;;;;;;;;5012492;28;20258;-59
2023/06/04 12:28:18;;;;;;;7.47;2.05;;;;;;;;;;5012982;28;20672;-58
2023/06/04 12:30:43;;;;;;;8.98;1.80;;;;;;;;;;5013276;28;20228;-58
2023/06/04 12:33:10;;;;;;;3.10;1.23;;;;;;;;;;5012304;28;20220;-57
2023/06/04 12:35:35;;;;;;;4.80;1.17;;;;;;;;;;5013077;28;20208;-58
2023/06/04 12:38:02;;;;;;;2.20;1.25;;;;;;;;;;5012448;28;20258;-58
2023/06/04 12:40:27;;;;;;;3.95;1.40;;;;;;;;;;5013122;28;20212;-58
2023/06/04 12:42:53;;;;;;;2.53;1.40;;;;;;;;;;5013442;28;20227;-58
2023/06/04 12:45:18;;;;;;;5.90;1.20;;;;;;;;;;5011993;28;20208;-58
2023/06/04 12:47:43;;;;;;;5.30;1.30;;;;;;;;;;5013301;28;20694;-58
2023/06/04 12:50:09;;;;;;;4.00;1.40;;;;;;;;;;5012568;28;20586;-59
2023/06/04 12:52:34;;;;;;;4.78;1.50;;;;;;;;;;5012069;28;20262;-59
2023/06/04 12:54:59;;;;;;;7.35;1.60;;;;;;;;;;5012555;28;20292;-59
2023/06/04 12:57:25;;;;;;;2.92;1.30;;;;;;;;;;5012682;28;20295;-58
2023/06/04 12:59:50;;;;;;;4.85;1.40;;;;;;;;;;5011104;28;20219;-58
2023/06/04 13:02:15;;;;;;;3.80;1.30;;;;;;;;;;5012417;28;20239;-59
2023/06/04 13:04:42;;;;;;;6.38;1.45;;;;;;;;;;5012984;28;20211;-58
2023/06/04 13:07:08;;;;;;;3.70;1.40;;;;;;;;;;5011400;28;20212;-58
2023/06/04 13:09:34;;;;;;;2.88;1.40;;;;;;;;;;5012093;28;20579;-58
2023/06/04 13:12:00;;;;;;;3.28;1.42;;;;;;;;;;5012535;28;20224;-58
2023/06/04 13:14:25;;;;;;;5.93;1.30;;;;;;;;;;5011600;28;20299;-59
2023/06/04 13:16:51;;;;;;;6.07;1.85;;;;;;;;;;5012702;28;20216;-58
2023/06/04 13:19:16;;;;;;;3.28;1.90;;;;;;;;;;5012055;28;20713;-58
2023/06/04 13:21:41;;;;;;;4.10;1.90;;;;;;;;;;5011764;28;20223;-58
2023/06/04 13:24:10;;;;;;;4.30;1.30;;;;;;;;;;5012115;28;20212;-58
2023/06/04 13:26:35;;;;;;;4.03;1.40;;;;;;;;;;5012403;28;20262;-58
2023/06/04 13:29:01;;;;;;;5.70;1.40;;;;;;;;;;5011287;28;20228;-57
2023/06/04 13:31:26;;;;;;;4.65;1.48;;;;;;;;;;5012426;28;20320;-58
2023/06/04 13:33:51;;;;;;;3.92;1.48;;;;;;;;;;5012603;28;20208;-58
2023/06/04 13:36:17;;;;;;;3.50;1.70;;;;;;;;;;5011240;28;20216;-58
2023/06/04 13:38:43;;;;;;;2.35;1.25;;;;;;;;;;5012262;28;20690;-58
2023/06/04 13:41:08;;;;;;;2.95;1.40;;;;;;;;;;5011991;28;20282;-58
2023/06/04 13:43:33;;;;;;;2.88;1.20;;;;;;;;;;5011834;28;20675;-58
2023/06/04 13:45:58;;;;;;;4.95;1.30;;;;;;;;;;5012266;28;20217;-59
2023/06/04 13:48:24;;;;;;;2.75;1.30;;;;;;;;;;5011478;28;20643;-58
2023/06/04 13:50:49;;;;;;;2.72;1.48;;;;;;;;;;5012289;28;20626;-59
2023/06/04 13:53:14;;;;;;;4.18;1.60;;;;;;;;;;5011640;28;20220;-58
2023/06/04 13:55:40;;;;;;;3.88;1.35;;;;;;;;;;5011269;28;20265;-58
2023/06/04 13:58:05;;;;;;;6.60;1.65;;;;;;;;;;5012018;28;20596;-58
2023/06/04 14:00:31;;;;;;;7.18;1.63;;;;;;;;;;5012393;28;20212;-58
2023/06/04 14:02:56;;;;;;;4.80;1.20;;;;;;;;;;5011450;28;20204;-58
2023/06/04 14:05:23;;;;;;;2.88;1.35;;;;;;;;;;5011744;28;20212;-58
2023/06/04 14:07:48;;;;;;;1.52;1.10;;;;;;;;;;5012095;28;20350;-58
2023/06/04 14:10:13;;;;;;;12.27;1.40;;;;;;;;;;5011013;28;20671;-58
2023/06/04 14:12:40;;;;;;;7.90;1.40;;;;;;;;;;5012207;28;20240;-58
2023/06/04 14:15:06;;;;;;;3.25;1.50;;;;;;;;;;5011605;28;20219;-57
2023/06/04 14:17:34;;;;;;;5.68;1.50;;;;;;;;;;5010370;28;20236;-58
2023/06/04 14:19:59;;;;;;;2.25;1.42;;;;;;;;;;5010517;28;20262;-59
2023/06/04 14:22:25;;;;;;;2.65;1.60;;;;;;;;;;5012125;28;20216;-59
2023/06/04 14:24:50;;;;;;;3.47;1.30;;;;;;;;;;5013568;28;20287;-58
2023/06/04 14:27:16;;;;;;;3.28;1.30;;;;;;;;;;5013119;28;20327;-59
2023/06/04 14:29:41;;;;;;;2.72;1.50;;;;;;;;;;5013419;28;20224;-58
2023/06/04 14:32:06;;;;;;;3.25;1.80;;;;;;;;;;5007620;28;20427;-58
2023/06/04 14:34:32;;;;;;;3.33;1.38;;;;;;;;;;5015327;28;20212;-58